Time;durP1;ratioP1;P1;durP2;ratioP2;P2;SDS_P1;SDS_P2;PMS_P1;PMS_P2;Temp;Humidity;BMP_temperature;BMP_pressure;BME280_temperature;BME280_humidity;BME280_pressure;Samples;Min_cycle;Max_cycle;Signal;HPM_P1;HPM_P2
2022/01/07 00:00:54;;;;;;;;;14.25;13.50;;;;;21.25;42.62;101010.91;6373977;22;45369;-75
2022/01/07 00:03:25;;;;;;;;;15.00;13.25;;;;;21.20;42.58;100987.19;6373285;22;45203;-75
2022/01/07 00:06:01;;;;;;;;;15.25;14.00;;;;;21.23;42.82;100987.06;6294148;22;45331;-74
2022/01/07 00:08:27;;;;;;;;;12.75;12.25;;;;;21.22;42.55;100993.31;6347158;22;45446;-76
2022/01/07 00:10:56;;;;;;;;;16.25;13.50;;;;;21.16;42.81;100974.91;6373111;22;45428;-75
2022/01/07 00:13:27;;;;;;;;;10.75;9.75;;;;;21.20;42.61;100983.63;6373428;22;46088;-75
2022/01/07 00:15:56;;;;;;;;;11.75;11.75;;;;;21.18;42.49;100963.31;6321540;22;45226;-75
2022/01/07 00:18:22;;;;;;;;;15.75;14.75;;;;;21.19;42.22;100956.22;6344803;22;46025;-75
2022/01/07 00:20:47;;;;;;;;;18.25;14.25;;;;;21.21;42.36;100949.09;6345073;22;45167;-75
2022/01/07 00:23:13;;;;;;;;;13.25;11.75;;;;;21.19;42.49;100942.94;6372934;22;46102;-75
2022/01/07 00:25:41;;;;;;;;;12.75;9.50;;;;;21.18;42.05;100947.38;6345550;22;45436;-75
2022/01/07 00:28:09;;;;;;;;;17.25;14.75;;;;;21.14;42.17;100932.50;6344941;22;45304;-75
2022/01/07 00:30:37;;;;;;;;;15.50;12.50;;;;;21.16;42.43;100928.00;6345872;22;45505;-76
2022/01/07 00:33:12;;;;;;;;;16.50;13.00;;;;;21.18;42.13;100920.84;6345540;22;46135;-75
2022/01/07 00:35:38;;;;;;;;;16.75;15.50;;;;;21.18;42.21;100938.56;6373395;22;45200;-75
2022/01/07 00:38:09;;;;;;;;;17.00;13.50;;;;;21.16;42.21;100913.84;6344452;22;45436;-75
2022/01/07 00:40:37;;;;;;;;;16.50;16.50;;;;;21.15;42.28;100909.47;6319546;22;45215;-75
2022/01/07 00:43:03;;;;;;;;;14.25;14.00;;;;;21.15;42.25;100917.44;6373146;22;45427;-75
2022/01/07 00:45:28;;;;;;;;;14.75;13.50;;;;;21.13;42.15;100901.56;6373360;22;45292;-75
2022/01/07 00:47:54;;;;;;;;;17.00;14.50;;;;;21.09;41.70;100888.41;6345258;22;45294;-75
2022/01/07 00:50:27;;;;;;;;;14.00;14.00;;;;;21.10;42.17;100911.38;6344755;22;45352;-75
2022/01/07 00:52:53;;;;;;;;;21.00;18.75;;;;;21.07;42.30;100896.44;6319398;22;47056;-75
2022/01/07 00:55:21;;;;;;;;;16.75;15.50;;;;;21.07;42.02;100907.06;6345241;22;45456;-75
2022/01/07 00:57:47;;;;;;;;;20.25;17.75;;;;;21.10;42.17;100908.72;6373886;22;45268;-75
2022/01/07 01:00:14;;;;;;;;;19.50;16.00;;;;;21.10;42.06;100912.25;6345361;22;45255;-75
2022/01/07 01:02:40;;;;;;;;;17.75;17.50;;;;;21.09;42.00;100910.53;6372430;22;45285;-75
2022/01/07 01:05:06;;;;;;;;;16.00;15.50;;;;;21.08;42.01;100903.47;6344380;22;45906;-76
2022/01/07 01:07:34;;;;;;;;;17.00;15.50;;;;;21.10;42.39;100898.13;6372801;22;45101;-75
2022/01/07 01:09:59;;;;;;;;;21.25;16.00;;;;;21.09;42.31;100888.41;6344615;22;45385;-75
2022/01/07 01:12:27;;;;;;;;;21.00;17.50;;;;;21.09;42.08;100893.72;6344829;22;45414;-75
2022/01/07 01:14:55;;;;;;;;;15.50;15.50;;;;;21.10;41.57;100880.41;6345102;22;45432;-75
2022/01/07 01:17:21;;;;;;;;;19.75;18.75;;;;;21.08;42.34;100897.31;6344713;22;49949;-75
2022/01/07 01:19:46;;;;;;;;;21.25;19.25;;;;;21.09;42.16;100885.78;6344756;22;50491;-75
2022/01/07 01:22:12;;;;;;;;;17.50;17.25;;;;;21.08;41.72;100870.78;6372581;22;54581;-75
2022/01/07 01:24:37;;;;;;;;;19.75;15.00;;;;;21.09;42.14;100893.72;6373127;22;45090;-75
2022/01/07 01:27:03;;;;;;;;;16.50;14.00;;;;;21.08;42.14;100876.94;6373463;22;45165;-75
2022/01/07 01:29:28;;;;;;;;;17.25;16.50;;;;;21.09;42.30;100880.47;6344647;22;45297;-75
2022/01/07 01:31:54;;;;;;;;;19.00;16.00;;;;;21.06;42.27;100881.44;6318866;22;45399;-76
2022/01/07 01:34:19;;;;;;;;;13.50;13.25;;;;;21.08;42.11;100876.94;6318379;22;45342;-75
2022/01/07 01:36:45;;;;;;;;;15.75;14.50;;;;;21.08;42.12;100878.72;6318989;22;45258;-75
2022/01/07 01:39:19;;;;;;;;;14.75;12.00;;;;;21.05;41.96;100895.63;5114240;27;45454;-75
2022/01/07 01:41:45;;;;;;;;;15.75;13.00;;;;;21.06;42.20;100893.84;5078777;27;49602;-75
2022/01/07 01:44:10;;;;;;;;;15.75;13.25;;;;;21.04;42.20;100880.63;5062066;27;45662;-75
2022/01/07 01:46:38;;;;;;;;;12.75;11.25;;;;;21.05;42.25;100895.63;5078505;27;53071;-75
2022/01/07 01:49:05;;;;;;;;;12.25;11.50;;;;;21.04;42.00;100880.63;5078561;27;46761;-75
2022/01/07 01:51:30;;;;;;;;;19.00;14.00;;;;;21.04;41.98;100885.06;5079021;27;45280;-74
2022/01/07 01:53:55;;;;;;;;;13.50;13.25;;;;;21.06;42.18;100899.16;5078629;27;45448;-75
2022/01/07 01:56:21;;;;;;;;;14.50;14.25;;;;;21.05;42.20;100890.31;5095363;27;45392;-75
2022/01/07 01:58:46;;;;;;;;;14.75;13.75;;;;;21.06;42.17;100905.31;5077839;27;64699;-75
2022/01/07 02:01:12;;;;;;;;;15.50;14.25;;;;;21.05;42.04;100889.44;5095435;27;54555;-74
2022/01/07 02:03:37;;;;;;;;;16.25;14.50;;;;;21.05;41.97;100876.19;5095565;27;45867;-74
2022/01/07 02:06:03;;;;;;;;;13.75;12.00;;;;;21.03;41.79;100873.59;5078517;27;45295;-74
2022/01/07 02:08:29;;;;;;;;;12.75;11.00;;;;;21.03;41.77;100873.59;5096453;27;46261;-75
2022/01/07 02:10:55;;;;;;;;;11.25;11.00;;;;;21.02;42.15;100866.50;5078718;27;45339;-74
2022/01/07 02:13:20;;;;;;;;;15.25;12.50;;;;;21.02;42.03;100884.22;5095743;27;45529;-74
2022/01/07 02:15:46;;;;;;;;;12.50;11.25;;;;;21.01;41.70;100878.03;5096238;27;60148;-74
2022/01/07 02:18:11;;;;;;;;;10.25;10.25;;;;;21.01;41.65;100866.56;5094451;27;51703;-74
2022/01/07 02:20:37;;;;;;;;;12.50;10.75;;;;;20.98;42.08;100856.06;5095625;27;45224;-74
2022/01/07 02:23:02;;;;;;;;;13.75;11.00;;;;;20.99;41.70;100860.44;5095443;27;45626;-74
2022/01/07 02:25:28;;;;;;;;;10.75;10.00;;;;;20.96;42.00;100842.84;5095383;27;45374;-74
2022/01/07 02:27:53;;;;;;;;;13.75;9.00;;;;;20.97;41.98;100852.53;5096005;27;53272;-74
2022/01/07 02:30:27;;;;;;;;;12.25;12.00;;;;;21.02;41.99;100852.38;5095148;27;46326;-74
2022/01/07 02:32:53;;;;;;;;;11.75;11.25;;;;;21.01;41.89;100842.69;5096408;27;45317;-75
2022/01/07 02:35:19;;;;;;;;;9.75;8.50;;;;;21.00;42.19;100839.16;5095164;27;45552;-74
2022/01/07 02:37:44;;;;;;;;;12.50;10.00;;;;;21.01;41.91;100832.06;5094661;27;46705;-74
2022/01/07 02:40:10;;;;;;;;;13.25;10.75;;;;;21.00;42.19;100827.69;5094845;27;45614;-74
2022/01/07 02:42:36;;;;;;;;;12.25;12.25;;;;;20.99;41.77;100834.78;5078022;27;45408;-75
2022/01/07 02:45:01;;;;;;;;;11.00;10.25;;;;;21.01;41.85;100821.47;5096270;27;45333;-75
2022/01/07 02:47:31;;;;;;;;;12.25;9.00;;;;;21.00;42.02;100811.75;5095953;27;45406;-74
2022/01/07 02:50:04;;;;;;;;;10.75;10.75;;;;;21.00;41.99;100819.72;5085163;27;45292;-75
2022/01/07 02:52:29;;;;;;;;;11.50;9.25;;;;;20.99;41.87;100815.34;5049520;28;45371;-75
2022/01/07 02:54:55;;;;;;;;;14.25;12.50;;;;;20.99;42.01;100808.25;5064215;28;45428;-75
2022/01/07 02:57:20;;;;;;;;;13.00;12.25;;;;;20.99;41.57;100816.19;5080561;28;61405;-75
2022/01/07 02:59:45;;;;;;;;;11.50;10.00;;;;;20.99;42.09;100808.25;5063486;28;62822;-74
2022/01/07 03:02:11;;;;;;;;;11.00;10.50;;;;;21.00;41.55;100809.13;5079887;27;54759;-74
2022/01/07 03:04:36;;;;;;;;;10.00;8.50;;;;;20.97;41.86;100810.09;5094308;27;60363;-74
2022/01/07 03:07:02;;;;;;;;;8.75;8.75;;;;;20.98;42.00;100814.47;5077599;27;46531;-74
2022/01/07 03:09:29;;;;;;;;;10.75;10.75;;;;;20.98;41.65;100810.97;5077377;28;45365;-75
2022/01/07 03:11:54;;;;;;;;;13.25;10.00;;;;;20.97;41.68;100811.88;5077519;28;45409;-75
2022/01/07 03:14:20;;;;;;;;;11.00;10.25;;;;;20.96;41.94;100811.00;5082246;27;45490;-74
2022/01/07 03:16:45;;;;;;;;;9.25;8.50;;;;;20.94;41.96;100806.66;5081457;27;64854;-74
2022/01/07 03:19:11;;;;;;;;;10.75;10.75;;;;;20.96;42.01;100804.84;5081247;27;54976;-74
2022/01/07 03:21:36;;;;;;;;;11.50;9.50;;;;;20.94;41.90;100804.88;5080948;28;45399;-74
2022/01/07 03:24:01;;;;;;;;;13.50;10.25;;;;;20.95;41.73;100811.94;5080378;28;51013;-74
2022/01/07 03:26:27;;;;;;;;;10.00;10.00;;;;;20.92;41.79;100800.53;5046595;28;47300;-75
2022/01/07 03:28:52;;;;;;;;;10.25;9.00;;;;;20.93;41.73;100808.44;5081684;27;50387;-74
2022/01/07 03:31:17;;;;;;;;;14.25;9.75;;;;;20.95;42.04;100805.75;5080401;28;51661;-74
2022/01/07 03:33:43;;;;;;;;;10.25;9.50;;;;;20.95;41.80;100811.94;5079844;28;61677;-74
2022/01/07 03:36:08;;;;;;;;;10.00;9.75;;;;;20.95;41.80;100811.94;5081098;27;55674;-74
2022/01/07 03:38:34;;;;;;;;;9.25;8.00;;;;;20.95;41.74;100801.31;5063497;28;45357;-74
2022/01/07 03:40:59;;;;;;;;;10.00;10.00;;;;;20.94;42.19;100796.94;5063146;28;45559;-73
2022/01/07 03:43:24;;;;;;;;;9.75;8.00;;;;;20.95;41.79;100796.00;5080571;28;45298;-73
2022/01/07 03:45:50;;;;;;;;;10.50;10.50;;;;;20.97;41.91;100799.47;5081598;27;45420;-73
2022/01/07 03:48:15;;;;;;;;;10.00;9.25;;;;;20.96;41.82;100794.22;5081571;28;45260;-73
2022/01/07 03:50:41;;;;;;;;;10.00;10.00;;;;;20.96;42.42;100794.22;5080503;28;45331;-73
2022/01/07 03:53:06;;;;;;;;;8.50;8.50;;;;;20.96;41.97;100796.88;5079740;28;64075;-73
2022/01/07 03:55:32;;;;;;;;;10.00;9.00;;;;;20.96;41.87;100796.88;5080192;28;45361;-73
2022/01/07 03:57:57;;;;;;;;;9.50;8.50;;;;;20.96;41.78;100787.13;5081428;28;45238;-73
2022/01/07 04:00:34;;;;;;;;;8.25;7.75;;;;;20.95;42.22;100789.84;5062623;28;45366;-73
2022/01/07 04:03:01;;;;;;;;;11.50;8.50;;;;;20.95;42.18;100792.50;5080053;28;45289;-73
2022/01/07 04:05:26;;;;;;;;;8.25;6.00;;;;;20.94;42.19;100794.28;5081283;27;45448;-73
2022/01/07 04:07:52;;;;;;;;;11.00;7.50;;;;;20.95;42.24;100796.00;5081559;28;45231;-73
2022/01/07 04:10:17;;;;;;;;;9.50;8.50;;;;;20.93;41.81;100784.56;5079067;28;60247;-73
2022/01/07 04:12:42;;;;;;;;;7.00;6.50;;;;;20.94;41.73;100778.34;5096753;27;52394;-73
2022/01/07 04:15:08;;;;;;;;;9.75;7.75;;;;;20.93;41.92;100775.72;5081147;28;45583;-73
2022/01/07 04:17:47;;;;;;;;;8.25;8.25;;;;;20.92;41.73;100766.03;5079785;28;45524;-73
2022/01/07 04:20:14;;;;;;;;;9.00;8.00;;;;;20.91;41.96;100767.81;5063085;28;45460;-73
2022/01/07 04:22:39;;;;;;;;;8.25;6.50;;;;;20.89;41.86;100761.72;5081089;27;45636;-73
2022/01/07 04:25:07;;;;;;;;;7.25;7.00;;;;;20.91;41.77;100765.19;5080760;27;46516;-73
2022/01/07 04:27:33;;;;;;;;;10.00;8.00;;;;;20.88;41.79;100763.50;5063038;28;45406;-73
2022/01/07 04:29:58;;;;;;;;;8.00;7.50;;;;;20.90;41.78;100763.44;5079609;28;45400;-73
2022/01/07 04:32:24;;;;;;;;;7.75;7.75;;;;;20.89;42.30;100759.94;5080291;27;59216;-73
2022/01/07 04:34:49;;;;;;;;;8.50;7.00;;;;;20.89;42.20;100757.28;5080891;27;45480;-73
2022/01/07 04:37:14;;;;;;;;;7.00;6.00;;;;;20.89;41.82;100756.41;5080106;27;56852;-73
2022/01/07 04:39:40;;;;;;;;;8.25;7.50;;;;;20.88;41.87;100758.19;5081159;28;45812;-73
2022/01/07 04:42:05;;;;;;;;;9.00;6.00;;;;;20.88;42.06;100752.03;5080515;27;47659;-73
2022/01/07 04:44:31;;;;;;;;;8.75;7.75;;;;;20.89;41.46;100757.28;5081099;27;45448;-73
2022/01/07 04:46:56;;;;;;;;;7.00;6.75;;;;;20.91;41.87;100757.22;5079346;28;45247;-73
2022/01/07 04:49:21;;;;;;;;;8.50;8.00;;;;;20.90;41.88;100771.41;5079625;28;46544;-73
2022/01/07 04:51:47;;;;;;;;;7.50;6.25;;;;;20.91;41.67;100769.63;5062067;28;54371;-73
2022/01/07 04:54:12;;;;;;;;;6.50;6.25;;;;;20.89;41.34;100770.53;5079886;27;60485;-73
2022/01/07 04:56:38;;;;;;;;;5.25;5.25;;;;;20.92;41.63;100776.66;5080776;27;45319;-73
2022/01/07 04:59:03;;;;;;;;;6.50;5.75;;;;;20.92;41.79;100774.00;5061913;28;54446;-73
2022/01/07 05:01:31;;;;;;;;;7.00;7.00;;;;;20.92;41.85;100769.56;5045620;28;45604;-73
2022/01/07 05:03:57;;;;;;;;;6.75;6.00;;;;;20.89;41.88;100746.66;5044901;28;50462;-73
2022/01/07 05:09:06;;;;;;;;;7.00;5.00;;;;;20.93;41.32;100755.38;5079615;28;45637;-73
2022/01/07 05:11:31;;;;;;;;;5.25;5.00;;;;;20.95;41.57;100750.03;5080366;27;45302;-73
2022/01/07 05:13:57;;;;;;;;;6.00;6.00;;;;;20.95;41.74;100745.59;5061842;28;46289;-73
2022/01/07 05:16:23;;;;;;;;;4.75;4.75;;;;;20.96;41.86;100746.47;5079751;27;59879;-73
2022/01/07 05:18:49;;;;;;;;;7.00;7.00;;;;;20.96;41.35;100749.97;5079107;28;45489;-73
2022/01/07 05:21:14;;;;;;;;;7.75;6.00;;;;;20.99;41.76;100749.00;5062111;28;45508;-73
2022/01/07 05:23:40;;;;;;;;;5.75;5.75;;;;;21.00;41.65;100750.75;5078646;28;54600;-74
2022/01/07 05:26:07;;;;;;;;;5.75;4.50;;;;;21.02;41.66;100751.53;5061831;28;45370;-72
2022/01/07 05:28:32;;;;;;;;;7.75;7.75;;;;;21.02;41.37;100764.81;5079309;28;45444;-72
2022/01/07 05:30:58;;;;;;;;;5.75;5.75;;;;;21.01;41.77;100768.38;5079927;27;53376;-72
2022/01/07 05:33:23;;;;;;;;;9.50;6.00;;;;;21.04;41.55;100776.28;5078621;28;45496;-72
2022/01/07 05:35:49;;;;;;;;;7.75;6.00;;;;;21.01;41.65;100758.63;5070199;28;55825;-72
2022/01/07 05:38:14;;;;;;;;;4.75;4.50;;;;;21.05;41.65;100773.56;5079605;27;53094;-72
2022/01/07 05:40:40;;;;;;;;;4.00;3.75;;;;;21.05;41.73;100770.03;5079916;27;45259;-72
2022/01/07 05:43:05;;;;;;;;;5.50;5.00;;;;;21.05;41.36;100765.59;5078646;28;45422;-73
2022/01/07 05:45:30;;;;;;;;;7.00;5.00;;;;;21.06;41.71;100764.69;5044742;28;45346;-72
2022/01/07 05:47:56;;;;;;;;;7.75;5.50;;;;;21.05;41.45;100765.59;5061403;28;52035;-72
2022/01/07 05:50:22;;;;;;;;;6.25;4.25;;;;;21.07;41.86;100754.91;5061315;28;55297;-72
2022/01/07 05:52:47;;;;;;;;;6.00;6.00;;;;;21.08;41.57;100769.91;5078816;28;45322;-72
2022/01/07 05:55:13;;;;;;;;;8.50;6.00;;;;;21.09;41.49;100764.56;5060710;28;60717;-72
2022/01/07 05:57:38;;;;;;;;;7.00;6.50;;;;;21.07;41.73;100753.13;5045054;28;45484;-72
2022/01/07 06:00:08;;;;;;;;;5.00;5.00;;;;;21.10;41.36;100753.03;5044332;28;55488;-72
2022/01/07 06:02:33;;;;;;;;;7.00;4.00;;;;;21.11;41.48;100762.75;5061539;28;46557;-74
2022/01/07 06:04:58;;;;;;;;;6.00;4.75;;;;;21.16;42.66;100762.56;5061249;28;45329;-74
2022/01/07 06:07:24;;;;;;;;;8.50;6.00;;;;;21.21;42.52;100754.47;5078749;28;45299;-75
2022/01/07 06:09:49;;;;;;;;;5.75;5.75;;;;;21.23;42.66;100752.63;5062170;28;45414;-75
2022/01/07 06:12:15;;;;;;;;;7.00;7.00;;;;;21.29;43.64;100761.28;5078199;28;47049;-78
2022/01/07 06:14:40;;;;;;;;;5.00;5.00;;;;;21.33;44.74;100760.22;5079460;27;45165;-75
2022/01/07 06:17:08;;;;;;;;;5.00;5.00;;;;;21.39;44.05;100762.69;5079795;27;45207;-73
2022/01/07 06:19:34;;;;;;;;;6.00;5.00;;;;;21.48;44.19;100765.94;5079808;27;45489;-75
2022/01/07 06:21:59;;;;;;;;;6.00;5.00;;;;;21.49;43.92;100759.72;5079462;27;45593;-74
2022/01/07 06:24:25;;;;;;;;;6.25;6.00;;;;;21.50;43.65;100766.75;5080286;27;45391;-75
2022/01/07 06:26:50;;;;;;;;;8.25;5.25;;;;;21.56;43.45;100771.84;5081745;28;45855;-75
2022/01/07 06:29:15;;;;;;;;;8.00;5.75;;;;;21.61;44.02;100784.03;5082806;27;45517;-72
2022/01/07 06:31:41;;;;;;;;;8.75;6.50;;;;;21.63;43.37;100779.53;5081010;28;64281;-75
2022/01/07 06:34:06;;;;;;;;;7.00;6.00;;;;;21.66;43.85;100783.88;5081989;28;45311;-77
2022/01/07 06:36:32;;;;;;;;;5.00;5.00;;;;;21.67;43.25;100782.94;5081562;28;45326;-76
2022/01/07 06:38:58;;;;;;;;;6.00;5.00;;;;;21.66;43.48;100773.25;5084179;27;45342;-76
2022/01/07 06:41:23;;;;;;;;;7.25;4.25;;;;;21.65;43.17;100759.09;5082534;27;45270;-76
2022/01/07 06:43:49;;;;;;;;;6.50;6.50;;;;;21.66;43.79;100765.28;5082800;27;45250;-76
2022/01/07 06:46:14;;;;;;;;;6.00;5.75;;;;;21.62;43.72;100766.28;5081251;28;45315;-76
2022/01/07 06:48:41;;;;;;;;;6.25;6.25;;;;;21.63;43.45;100765.38;5064299;28;45485;-78
2022/01/07 06:51:06;;;;;;;;;10.00;7.75;;;;;21.61;43.44;100760.13;5080981;28;47240;-78
2022/01/07 06:53:32;;;;;;;;;7.25;6.50;;;;;21.60;43.48;100763.69;5082496;27;45305;-77
2022/01/07 06:55:57;;;;;;;;;6.25;5.25;;;;;21.61;43.22;100759.25;5080738;28;45923;-75
2022/01/07 06:58:23;;;;;;;;;7.00;6.00;;;;;21.54;43.67;100753.28;5081164;28;45393;-77
2022/01/07 07:00:48;;;;;;;;;6.00;5.25;;;;;21.60;43.55;100757.53;5082345;27;45431;-75
2022/01/07 07:03:14;;;;;;;;;6.00;6.00;;;;;21.57;43.31;100750.53;5097765;27;50989;-78
2022/01/07 07:05:39;;;;;;;;;4.75;4.75;;;;;21.56;43.69;100750.59;5082442;27;45455;-76
2022/01/07 07:08:04;;;;;;;;;7.00;6.00;;;;;21.56;43.42;100753.25;5081909;27;45471;-78
2022/01/07 07:10:30;;;;;;;;;7.75;4.25;;;;;21.59;43.69;100777.03;5081687;27;45448;-77
2022/01/07 07:12:55;;;;;;;;;6.00;6.00;;;;;21.57;43.63;100773.56;5082229;27;45471;-77
2022/01/07 07:15:21;;;;;;;;;7.75;7.00;;;;;21.54;43.73;100768.34;5082112;27;45465;-77
2022/01/07 07:17:48;;;;;;;;;10.00;6.75;;;;;21.56;43.46;100780.69;5080267;28;45686;-78
2022/01/07 07:20:13;;;;;;;;;6.75;4.50;;;;;21.53;43.63;100771.94;5080482;28;45268;-77
2022/01/07 07:22:39;;;;;;;;;5.25;5.25;;;;;21.55;43.66;100776.28;5081561;27;58293;-77
2022/01/07 07:25:05;;;;;;;;;7.25;6.25;;;;;21.55;43.32;100784.25;5081957;27;48457;-73
2022/01/07 07:27:30;;;;;;;;;4.25;4.25;;;;;21.57;43.92;100782.41;5080707;28;45584;-76
2022/01/07 07:29:55;;;;;;;;;3.75;3.50;;;;;21.57;43.69;100778.91;5080527;28;45233;-74
2022/01/07 07:32:26;;;;;;;;;5.25;5.25;;;;;21.58;43.53;100777.97;5081704;27;45384;-76
2022/01/07 07:35:04;;;;;;;;;8.50;6.00;;;;;21.59;43.05;100780.56;5064532;28;45353;-73
2022/01/07 07:37:30;;;;;;;;;7.00;5.00;;;;;21.62;43.08;100793.72;5074738;27;45578;-71
2022/01/07 07:39:55;;;;;;;;;6.75;6.00;;;;;21.58;42.89;100784.13;5090394;27;47357;-74
2022/01/07 07:42:21;;;;;;;;;5.00;5.00;;;;;21.58;42.84;100794.75;5079045;28;45833;-78
2022/01/07 07:44:46;;;;;;;;;6.00;6.00;;;;;21.61;42.51;100799.09;5079537;28;45444;-78
2022/01/07 07:47:12;;;;;;;;;5.00;4.75;;;;;21.59;42.25;100804.47;5080592;27;45483;-78
2022/01/07 07:49:37;;;;;;;;;5.00;4.25;;;;;21.57;41.56;100813.41;5062880;28;47214;-77
2022/01/07 07:52:04;;;;;;;;;4.00;4.00;;;;;21.57;41.97;100813.41;5072888;28;45776;-77
2022/01/07 07:54:29;;;;;;;;;4.25;4.25;;;;;21.56;41.93;100819.66;5061578;27;45899;-78
2022/01/07 07:56:57;;;;;;;;;6.00;4.75;;;;;21.51;41.41;100814.50;5074325;27;45414;-78
2022/01/07 07:59:23;;;;;;;;;6.25;6.00;;;;;21.51;41.41;100814.50;5080100;27;45407;-80
2022/01/07 08:01:52;;;;;;;;;4.25;4.25;;;;;21.52;41.11;100825.97;5112759;27;45252;-79
2022/01/07 08:04:19;;;;;;;;;4.25;4.25;;;;;21.51;41.31;100835.72;5062574;28;45419;-79
2022/01/07 08:08:06;;;;;;;;;;;;;;;;;;;;;
2022/01/07 08:10:32;;;;;;;;;7.75;3.75;;;;;21.42;41.39;100818.31;5061353;27;74307;-77
2022/01/07 08:16:06;;;;;;;;;6.00;5.00;;;;;21.40;40.90;100806.91;5076862;27;45888;-78
2022/01/07 08:18:32;;;;;;;;;5.50;5.50;;;;;21.49;40.98;100818.13;5061972;28;45829;-75
2022/01/07 08:21:08;;;;;;;;;6.75;5.00;;;;;21.46;40.80;100821.75;5095548;27;48181;-75
2022/01/07 08:23:34;;;;;;;;;8.75;4.25;;;;;21.47;40.51;100817.31;5078381;28;45905;-75
2022/01/07 08:26:00;;;;;;;;;8.00;5.25;;;;;21.47;40.90;100818.19;5072896;28;45359;-75
2022/01/07 08:28:29;;;;;;;;;4.25;4.00;;;;;21.42;40.65;100814.81;5079906;28;45463;-79
2022/01/07 08:36:33;;;;;;;;;6.00;6.00;;;;;21.39;40.38;100810.47;5105387;27;45768;-80
2022/01/07 08:38:59;;;;;;;;;4.50;4.00;;;;;21.41;40.72;100808.63;5061783;28;45450;-75
2022/01/07 08:41:27;;;;;;;;;7.00;6.75;;;;;21.47;40.78;100818.19;5071089;28;45436;-78
2022/01/07 08:43:53;;;;;;;;;6.00;4.25;;;;;21.45;40.36;100812.03;5079729;27;45415;-77
2022/01/07 08:46:18;;;;;;;;;5.00;4.00;;;;;21.48;40.99;100819.91;5078686;28;45538;-77
2022/01/07 08:48:43;;;;;;;;;5.25;4.00;;;;;21.48;41.17;100827.88;5077795;28;49362;-76
2022/01/07 08:51:09;;;;;;;;;5.00;4.50;;;;;21.49;41.56;100813.69;5077917;28;47189;-74
2022/01/07 08:53:35;;;;;;;;;8.00;7.00;;;;;21.50;41.60;100819.84;5061294;28;45348;-75
2022/01/07 08:56:00;;;;;;;;;11.25;8.00;;;;;21.51;41.69;100797.69;5078110;28;45410;-77
2022/01/07 08:58:26;;;;;;;;;7.00;7.00;;;;;21.43;42.01;100756.34;5076161;28;45456;-74
2022/01/07 09:00:51;;;;;;;;;7.75;7.00;;;;;21.47;42.43;100750.94;5069337;28;46726;-74
2022/01/07 09:03:17;;;;;;;;;7.25;7.00;;;;;21.47;42.45;100767.72;5078687;27;45333;-75
2022/01/07 09:05:45;;;;;;;;;6.00;6.00;;;;;21.54;42.61;100786.94;5048983;28;45222;-76
2022/01/07 09:08:12;;;;;;;;;6.75;6.00;;;;;21.52;43.22;100759.59;5045985;28;45170;-75
2022/01/07 09:10:40;;;;;;;;;10.25;7.00;;;;;21.55;43.26;100752.41;5062572;28;47816;-76
2022/01/07 09:13:06;;;;;;;;;7.00;6.75;;;;;21.55;43.65;100757.72;5062419;28;46131;-75
2022/01/07 09:15:32;;;;;;;;;7.00;6.00;;;;;21.57;47.41;100757.66;5062833;28;45457;-82
2022/01/07 09:18:10;;;;;;;;;5.25;4.25;;;;;21.53;45.02;100774.59;5062292;28;45282;-81
2022/01/07 09:20:39;;;;;;;;;4.50;4.50;;;;;21.47;44.95;100785.44;5042048;28;46946;-81
2022/01/07 09:23:06;;;;;;;;;6.50;6.50;;;;;21.34;44.58;100783.22;5057848;28;45343;-83
2022/01/07 09:25:32;;;;;;;;;6.50;5.50;;;;;21.28;43.70;100791.38;5079074;28;45338;-83
2022/01/07 09:28:24;;;;;;;;;4.25;4.00;;;;;21.24;43.66;100796.81;5062591;28;45295;-80
2022/01/07 09:30:46;;;;;;;;;4.50;4.00;;;;;21.18;43.50;100795.22;5077595;28;45974;-79
2022/01/07 09:33:11;;;;;;;;;4.00;4.00;;;;;21.13;42.72;100800.72;5079102;28;45418;-79
2022/01/07 09:35:37;;;;;;;;;5.50;2.75;;;;;21.11;42.45;100802.56;5080317;27;45664;-82
2022/01/07 09:38:25;;;;;;;;;4.00;3.25;;;;;21.11;42.20;100805.22;5078644;28;45539;-81
2022/01/07 09:40:51;;;;;;;;;3.50;3.50;;;;;21.03;42.07;100803.72;5049114;28;46681;-79
2022/01/07 09:43:20;;;;;;;;;2.75;2.50;;;;;20.99;41.92;100802.06;5080255;28;45187;-82
2022/01/07 09:45:45;;;;;;;;;4.00;4.00;;;;;20.95;41.61;100795.16;5060855;28;45530;-82
2022/01/07 09:48:14;;;;;;;;;3.00;3.00;;;;;20.96;41.49;100802.19;5086402;27;45266;-80
2022/01/07 09:50:39;;;;;;;;;3.75;3.75;;;;;20.87;41.22;100798.91;5091282;27;47292;-80
2022/01/07 09:53:12;;;;;;;;;4.75;3.25;;;;;20.87;41.42;100793.59;5078771;28;45472;-81
2022/01/07 09:55:40;;;;;;;;;5.75;3.75;;;;;20.84;41.49;100796.34;5078610;28;45448;-80
2022/01/07 09:58:05;;;;;;;;;4.00;3.75;;;;;20.80;41.08;100789.41;5080125;27;46252;-83
2022/01/07 10:00:37;;;;;;;;;3.00;3.00;;;;;20.82;41.29;100792.88;5064487;28;47108;-80
2022/01/07 10:03:14;;;;;;;;;3.50;3.50;;;;;20.80;41.44;100794.72;5065655;28;45421;-82
2022/01/07 10:05:49;;;;;;;;;4.50;3.75;;;;;20.78;41.15;100790.38;5103104;27;45462;-81
2022/01/07 10:08:20;;;;;;;;;3.50;3.50;;;;;20.76;41.20;100795.75;5084551;27;45382;-83
2022/01/07 10:10:46;;;;;;;;;3.00;3.00;;;;;20.71;41.56;100791.50;5048232;28;47524;-84
2022/01/07 10:13:14;;;;;;;;;3.25;3.25;;;;;20.66;40.97;100772.19;5097947;27;45432;-82
2022/01/07 10:15:40;;;;;;;;;3.00;3.00;;;;;20.66;41.12;100781.00;5065179;28;45537;-81
2022/01/07 10:18:14;;;;;;;;;4.00;4.00;;;;;20.63;41.06;100781.13;5083290;27;45362;-80
2022/01/07 10:20:43;;;;;;;;;5.00;4.00;;;;;20.69;40.95;100794.19;5067230;28;45402;-83
2022/01/07 10:23:13;;;;;;;;;5.25;4.00;;;;;20.68;41.88;100786.28;5082379;28;45361;-82
2022/01/07 10:25:43;;;;;;;;;3.75;3.00;;;;;20.66;41.11;100773.06;5065371;28;45374;-79
2022/01/07 10:28:29;;;;;;;;;4.00;4.00;;;;;20.69;40.95;100769.47;5081877;28;45362;-77
2022/01/07 10:31:02;;;;;;;;;6.50;3.75;;;;;20.71;41.30;100765.84;5081544;27;45283;-78
2022/01/07 10:33:42;;;;;;;;;5.50;4.25;;;;;20.72;41.20;100759.59;5083124;27;45236;-81
2022/01/07 10:36:13;;;;;;;;;2.25;2.25;;;;;20.72;40.77;100759.59;5065089;28;45456;-81
2022/01/07 10:39:02;;;;;;;;;3.75;2.50;;;;;20.68;40.64;100755.34;5082759;28;45553;-79
2022/01/07 10:41:27;;;;;;;;;2.75;2.75;;;;;20.68;40.81;100752.69;5080563;27;45476;-79
2022/01/07 10:43:52;;;;;;;;;5.25;4.50;;;;;20.68;40.85;100757.13;5080778;28;45243;-78
2022/01/07 10:46:28;;;;;;;;;3.25;2.75;;;;;20.68;40.95;100752.69;5083713;28;45231;-81
2022/01/07 10:49:07;;;;;;;;;5.75;3.50;;;;;20.69;40.98;100750.91;5084896;27;45775;-80
2022/01/07 10:52:04;;;;;;;;;4.25;3.50;;;;;20.71;40.49;100749.06;5063568;27;46227;-79
2022/01/07 10:54:39;;;;;;;;;2.50;2.50;;;;;20.62;41.00;100736.09;5080168;28;45702;-77
2022/01/07 10:57:08;;;;;;;;;3.50;3.00;;;;;20.62;40.91;100749.34;5080758;28;45347;-77
2022/01/07 10:59:37;;;;;;;;;4.00;3.00;;;;;20.60;40.16;100744.97;5079080;28;45459;-78
2022/01/07 11:02:03;;;;;;;;;3.00;3.00;;;;;20.58;40.57;100749.44;5062689;28;46124;-78
2022/01/07 11:04:49;;;;;;;;;3.00;3.00;;;;;20.57;40.10;100738.88;5081673;27;45358;-79
2022/01/07 11:07:14;;;;;;;;;2.50;2.50;;;;;20.58;40.27;100759.16;5069355;28;45414;-76
2022/01/07 11:09:40;;;;;;;;;4.25;4.00;;;;;20.52;40.65;100744.34;5073758;28;45407;-73
2022/01/07 11:12:06;;;;;;;;;3.25;3.25;;;;;20.59;40.93;100756.50;5062948;28;52099;-75
2022/01/07 11:14:33;;;;;;;;;4.00;4.00;;;;;20.59;40.53;100750.31;5056698;28;45633;-75
2022/01/07 11:16:59;;;;;;;;;2.75;2.75;;;;;20.63;39.88;100751.94;5058822;28;45776;-74
2022/01/07 11:19:33;;;;;;;;;1.50;1.00;;;;;20.62;39.83;100754.66;5053309;28;45541;-74
2022/01/07 11:22:00;;;;;;;;;3.25;1.75;;;;;20.57;39.87;100752.13;5042844;28;47179;-74
2022/01/07 11:24:50;;;;;;;;;3.50;2.00;;;;;20.59;39.80;100745.88;5061731;28;45674;-74
2022/01/07 11:27:20;;;;;;;;;2.00;2.00;;;;;20.60;39.54;100741.44;5060221;28;45193;-75
2022/01/07 11:29:54;;;;;;;;;4.75;2.75;;;;;20.65;39.95;100746.59;5043312;28;45395;-73
2022/01/07 11:32:26;;;;;;;;;2.25;1.25;;;;;20.63;40.02;100749.28;5061305;28;45361;-73
2022/01/07 11:35:16;;;;;;;;;4.75;4.00;;;;;20.64;39.73;100755.47;5060105;28;45377;-72